Audubon Park, New Jersey
Current Conditions -  °F | °C
As of 8:54 PM on Saturday 25 Oct 2014 (Local Time) from KPHL Reporting Station
Few Clouds Few Clouds  
Wind Chill: 17°   Ceiling: Unl
Heat Index: 17°   Visibility: 10mi
Dew Point:   Wind: 12mph
Humidity: 56%   Direction: 220°SW
Pressure: 29.68"   Gusts: NA
Location:  39.891°N, 75.0738°W
Report Text: KPHL 260054Z 22010KT 10SM FEW065 17/08 A2968 RMK AO2 SLP051 T01670078
Loading
Personal Weather Stations






























Interactive Weather Map
Tropical Storm Tracking
New forecast layout! Learn more

10-Day Weather Forecast

Advertisements
Track Severe Weather on mobile